sensor_id;sensor_type;location;lat;lon;timestamp;P1;durP1;ratioP1;P2;durP2;ratioP2
63664;SDS011;49820;33.966;73.390;2024-01-30T03:08:17;7.80;;;4.60;;
63664;SDS011;49820;33.966;73.390;2024-01-30T03:10:47;9.88;;;4.82;;
63664;SDS011;49820;33.966;73.390;2024-01-30T03:13:18;5.68;;;3.95;;
63664;SDS011;49820;33.966;73.390;2024-01-30T03:15:47;7.70;;;4.38;;
63664;SDS011;49820;33.966;73.390;2024-01-30T03:18:17;7.82;;;3.72;;
63664;SDS011;49820;33.966;73.390;2024-01-30T03:20:47;6.23;;;3.60;;
63664;SDS011;49820;33.966;73.390;2024-01-30T03:23:17;5.80;;;3.40;;
63664;SDS011;49820;33.966;73.390;2024-01-30T03:25:47;6.03;;;3.85;;
63664;SDS011;49820;33.966;73.390;2024-01-30T03:28:16;10.80;;;4.10;;
63664;SDS011;49820;33.966;73.390;2024-01-30T03:30:46;7.93;;;4.10;;
63664;SDS011;49820;33.966;73.390;2024-01-30T03:33:16;7.90;;;3.40;;
63664;SDS011;49820;33.966;73.390;2024-01-30T03:35:46;6.35;;;3.75;;
63664;SDS011;49820;33.966;73.390;2024-01-30T03:38:16;9.03;;;3.60;;
63664;SDS011;49820;33.966;73.390;2024-01-30T03:40:45;6.90;;;3.60;;
63664;SDS011;49820;33.966;73.390;2024-01-30T03:43:15;7.03;;;3.93;;
63664;SDS011;49820;33.966;73.390;2024-01-30T03:45:45;5.88;;;3.30;;
63664;SDS011;49820;33.966;73.390;2024-01-30T03:48:15;6.97;;;3.50;;
63664;SDS011;49820;33.966;73.390;2024-01-30T04:01:57;8.23;;;5.00;;
63664;SDS011;49820;33.966;73.390;2024-01-30T04:04:27;9.27;;;5.22;;
63664;SDS011;49820;33.966;73.390;2024-01-30T04:06:57;8.90;;;5.38;;
63664;SDS011;49820;33.966;73.390;2024-01-30T04:09:27;9.52;;;5.50;;
63664;SDS011;49820;33.966;73.390;2024-01-30T04:11:57;9.55;;;5.60;;
63664;SDS011;49820;33.966;73.390;2024-01-30T04:14:26;9.73;;;5.88;;
63664;SDS011;49820;33.966;73.390;2024-01-30T04:16:56;9.88;;;6.18;;
63664;SDS011;49820;33.966;73.390;2024-01-30T04:19:26;9.77;;;5.63;;
63664;SDS011;49820;33.966;73.390;2024-01-30T04:21:56;9.07;;;5.55;;
63664;SDS011;49820;33.966;73.390;2024-01-30T04:24:26;11.00;;;6.50;;
63664;SDS011;49820;33.966;73.390;2024-01-30T04:26:56;10.80;;;5.35;;
63664;SDS011;49820;33.966;73.390;2024-01-30T04:29:26;8.90;;;5.43;;
63664;SDS011;49820;33.966;73.390;2024-01-30T04:31:57;10.32;;;5.95;;
63664;SDS011;49820;33.966;73.390;2024-01-30T04:34:32;10.40;;;6.20;;
63664;SDS011;49820;33.966;73.390;2024-01-30T04:37:02;9.32;;;6.45;;
63664;SDS011;49820;33.966;73.390;2024-01-30T04:39:32;9.32;;;6.20;;
63664;SDS011;49820;33.966;73.390;2024-01-30T04:42:02;9.52;;;6.22;;
63664;SDS011;49820;33.966;73.390;2024-01-30T04:44:35;10.48;;;6.63;;
63664;SDS011;49820;33.966;73.390;2024-01-30T04:47:05;10.18;;;6.45;;
63664;SDS011;49820;33.966;73.390;2024-01-30T04:49:40;11.00;;;6.40;;
63664;SDS011;49820;33.966;73.390;2024-01-30T04:52:12;12.02;;;6.35;;
63664;SDS011;49820;33.966;73.390;2024-01-30T04:54:48;11.25;;;6.47;;
63664;SDS011;49820;33.966;73.390;2024-01-30T04:57:25;8.40;;;5.60;;
63664;SDS011;49820;33.966;73.390;2024-01-30T04:59:54;8.95;;;5.35;;
63664;SDS011;49820;33.966;73.390;2024-01-30T05:10:51;10.63;;;5.97;;
63664;SDS011;49820;33.966;73.390;2024-01-30T05:13:21;9.80;;;6.15;;
63664;SDS011;49820;33.966;73.390;2024-01-30T05:15:51;10.43;;;6.70;;
63664;SDS011;49820;33.966;73.390;2024-01-30T05:18:21;10.23;;;6.00;;
63664;SDS011;49820;33.966;73.390;2024-01-30T05:20:51;10.65;;;6.40;;
63664;SDS011;49820;33.966;73.390;2024-01-30T05:23:28;11.02;;;6.13;;
63664;SDS011;49820;33.966;73.390;2024-01-30T05:26:06;10.82;;;6.05;;
63664;SDS011;49820;33.966;73.390;2024-01-30T05:28:43;11.98;;;6.22;;
63664;SDS011;49820;33.966;73.390;2024-01-30T05:31:18;10.85;;;6.32;;
63664;SDS011;49820;33.966;73.390;2024-01-30T05:33:54;9.57;;;5.63;;
63664;SDS011;49820;33.966;73.390;2024-01-30T05:36:28;10.95;;;6.43;;
63664;SDS011;49820;33.966;73.390;2024-01-30T05:38:58;9.55;;;5.80;;
63664;SDS011;49820;33.966;73.390;2024-01-30T05:41:28;9.63;;;5.90;;
63664;SDS011;49820;33.966;73.390;2024-01-30T05:43:58;10.10;;;5.67;;
63664;SDS011;49820;33.966;73.390;2024-01-30T05:46:27;9.35;;;5.00;;
63664;SDS011;49820;33.966;73.390;2024-01-30T05:48:57;8.30;;;5.63;;
63664;SDS011;49820;33.966;73.390;2024-01-30T05:51:27;12.63;;;6.43;;
63664;SDS011;49820;33.966;73.390;2024-01-30T05:53:57;10.25;;;6.13;;
63664;SDS011;49820;33.966;73.390;2024-01-30T05:56:26;10.18;;;6.38;;
63664;SDS011;49820;33.966;73.390;2024-01-30T05:58:57;11.70;;;6.57;;
63664;SDS011;49820;33.966;73.390;2024-01-30T06:01:28;9.23;;;6.13;;
63664;SDS011;49820;33.966;73.390;2024-01-30T06:03:58;10.15;;;5.90;;
63664;SDS011;49820;33.966;73.390;2024-01-30T06:06:28;9.35;;;6.53;;
63664;SDS011;49820;33.966;73.390;2024-01-30T06:08:57;10.00;;;6.40;;
63664;SDS011;49820;33.966;73.390;2024-01-30T06:11:29;11.38;;;6.82;;
63664;SDS011;49820;33.966;73.390;2024-01-30T06:13:59;9.50;;;6.63;;
63664;SDS011;49820;33.966;73.390;2024-01-30T06:16:29;10.10;;;6.80;;
63664;SDS011;49820;33.966;73.390;2024-01-30T06:19:00;5.13;;;3.92;;
63664;SDS011;49820;33.966;73.390;2024-01-30T06:21:32;9.65;;;5.68;;
63664;SDS011;49820;33.966;73.390;2024-01-30T06:24:09;9.30;;;5.50;;
63664;SDS011;49820;33.966;73.390;2024-01-30T06:26:38;11.70;;;6.03;;
63664;SDS011;49820;33.966;73.390;2024-01-30T06:29:09;9.90;;;5.90;;
63664;SDS011;49820;33.966;73.390;2024-01-30T06:31:48;10.53;;;6.67;;
63664;SDS011;49820;33.966;73.390;2024-01-30T06:34:23;12.68;;;7.55;;
63664;SDS011;49820;33.966;73.390;2024-01-30T06:36:57;13.02;;;7.22;;
63664;SDS011;49820;33.966;73.390;2024-01-30T06:39:30;12.85;;;7.47;;
63664;SDS011;49820;33.966;73.390;2024-01-30T06:42:01;10.50;;;6.68;;
63664;SDS011;49820;33.966;73.390;2024-01-30T06:44:33;10.88;;;7.00;;
63664;SDS011;49820;33.966;73.390;2024-01-30T06:47:06;11.70;;;6.53;;
63664;SDS011;49820;33.966;73.390;2024-01-30T06:49:36;11.15;;;5.88;;
63664;SDS011;49820;33.966;73.390;2024-01-30T06:52:07;11.20;;;6.80;;
63664;SDS011;49820;33.966;73.390;2024-01-30T06:54:40;10.48;;;6.18;;
63664;SDS011;49820;33.966;73.390;2024-01-30T06:57:16;9.88;;;6.45;;
63664;SDS011;49820;33.966;73.390;2024-01-30T06:59:49;9.45;;;6.45;;
63664;SDS011;49820;33.966;73.390;2024-01-30T07:02:28;11.55;;;7.68;;
63664;SDS011;49820;33.966;73.390;2024-01-30T07:04:58;13.85;;;7.53;;
63664;SDS011;49820;33.966;73.390;2024-01-30T07:07:28;9.33;;;5.40;;
63664;SDS011;49820;33.966;73.390;2024-01-30T07:09:59;10.80;;;5.07;;
63664;SDS011;49820;33.966;73.390;2024-01-30T07:12:30;9.50;;;5.97;;
63664;SDS011;49820;33.966;73.390;2024-01-30T07:15:00;9.82;;;5.95;;
63664;SDS011;49820;33.966;73.390;2024-01-30T07:17:31;9.55;;;6.25;;
63664;SDS011;49820;33.966;73.390;2024-01-30T07:20:01;9.13;;;5.88;;
63664;SDS011;49820;33.966;73.390;2024-01-30T07:22:32;8.77;;;5.20;;
63664;SDS011;49820;33.966;73.390;2024-01-30T07:25:03;9.73;;;5.63;;
63664;SDS011;49820;33.966;73.390;2024-01-30T07:27:33;9.63;;;5.50;;
63664;SDS011;49820;33.966;73.390;2024-01-30T07:30:03;9.47;;;5.13;;
63664;SDS011;49820;33.966;73.390;2024-01-30T07:32:34;10.38;;;5.72;;
63664;SDS011;49820;33.966;73.390;2024-01-30T07:35:04;9.60;;;5.90;;
63664;SDS011;49820;33.966;73.390;2024-01-30T07:37:36;8.93;;;5.15;;
63664;SDS011;49820;33.966;73.390;2024-01-30T07:40:06;10.60;;;6.13;;
63664;SDS011;49820;33.966;73.390;2024-01-30T07:42:37;11.00;;;5.97;;
63664;SDS011;49820;33.966;73.390;2024-01-30T07:45:09;13.43;;;7.22;;
63664;SDS011;49820;33.966;73.390;2024-01-30T07:47:39;10.50;;;6.50;;
63664;SDS011;49820;33.966;73.390;2024-01-30T07:50:10;13.23;;;7.33;;
63664;SDS011;49820;33.966;73.390;2024-01-30T07:52:42;13.05;;;6.20;;
63664;SDS011;49820;33.966;73.390;2024-01-30T07:55:12;12.88;;;6.60;;
63664;SDS011;49820;33.966;73.390;2024-01-30T07:57:42;10.93;;;6.72;;
63664;SDS011;49820;33.966;73.390;2024-01-30T08:00:12;10.80;;;6.40;;
63664;SDS011;49820;33.966;73.390;2024-01-30T08:02:43;11.45;;;6.10;;
63664;SDS011;49820;33.966;73.390;2024-01-30T08:05:12;10.23;;;6.38;;
63664;SDS011;49820;33.966;73.390;2024-01-30T08:07:43;13.13;;;6.28;;
63664;SDS011;49820;33.966;73.390;2024-01-30T08:10:15;8.65;;;5.70;;
63664;SDS011;49820;33.966;73.390;2024-01-30T08:12:48;13.43;;;6.45;;
63664;SDS011;49820;33.966;73.390;2024-01-30T08:34:10;11.57;;;6.70;;
63664;SDS011;49820;33.966;73.390;2024-01-30T08:36:40;12.73;;;7.15;;
63664;SDS011;49820;33.966;73.390;2024-01-30T08:39:11;12.85;;;6.90;;
63664;SDS011;49820;33.966;73.390;2024-01-30T08:41:41;11.18;;;6.40;;
63664;SDS011;49820;33.966;73.390;2024-01-30T08:44:12;12.20;;;6.22;;
63664;SDS011;49820;33.966;73.390;2024-01-30T08:47:01;10.10;;;6.80;;
63664;SDS011;49820;33.966;73.390;2024-01-30T08:49:52;12.10;;;7.53;;
63664;SDS011;49820;33.966;73.390;2024-01-30T08:52:46;11.10;;;6.72;;
63664;SDS011;49820;33.966;73.390;2024-01-30T08:55:37;13.35;;;6.60;;
63664;SDS011;49820;33.966;73.390;2024-01-30T08:58:27;9.85;;;5.85;;
63664;SDS011;49820;33.966;73.390;2024-01-30T09:01:18;11.75;;;7.43;;
63664;SDS011;49820;33.966;73.390;2024-01-30T09:04:08;12.67;;;6.57;;
63664;SDS011;49820;33.966;73.390;2024-01-30T09:06:58;13.40;;;7.47;;
63664;SDS011;49820;33.966;73.390;2024-01-30T09:09:48;13.40;;;6.83;;
63664;SDS011;49820;33.966;73.390;2024-01-30T09:12:38;10.77;;;6.80;;
63664;SDS011;49820;33.966;73.390;2024-01-30T09:15:28;12.57;;;7.10;;
63664;SDS011;49820;33.966;73.390;2024-01-30T09:18:19;12.57;;;7.55;;
63664;SDS011;49820;33.966;73.390;2024-01-30T09:21:09;12.80;;;8.23;;
63664;SDS011;49820;33.966;73.390;2024-01-30T09:24:03;12.27;;;7.50;;
63664;SDS011;49820;33.966;73.390;2024-01-30T09:26:53;14.63;;;8.65;;
63664;SDS011;49820;33.966;73.390;2024-01-30T09:29:26;13.95;;;8.93;;
63664;SDS011;49820;33.966;73.390;2024-01-30T09:31:56;11.65;;;7.82;;
